This is the latest recevied weather packets stored in our database for station/object OK1PHM-12. If no packets are shown the sender has not sent any weather packets the latest 1 day(s).
| Time | Temp. | Humidity | Pressure | Rain* | Wind** | Luminosity | Snow |
|---|---|---|---|---|---|---|---|
| 1778090297 | 15.56° C | 85% | 1006.9 hPa | - | - | - | - |
| 1778086694 | 17.22° C | 84% | 1006.4 hPa | - | - | - | - |
| 1778082190 | 18.89° C | 77% | 1006.9 hPa | - | - | - | - |
| 1778081289 | 19.44° C | 73% | 1006.9 hPa | - | - | - | - |
| 1778078586 | 20.56° C | 73% | 1007.2 hPa | - | - | - | - |
| 1778076785 | 21.11° C | 65% | 1007.3 hPa | - | - | - | - |
| 1778075884 | 21.67° C | 62% | 1007.2 hPa | - | - | - | - |
| 1778071380 | 25° C | 42% | 1007.6 hPa | - | - | - | - |
| 1778070479 | 24.44° C | 42% | 1007.9 hPa | - | - | - | - |
| 1778065975 | 23.89° C | 45% | 1008.5 hPa | - | - | - | - |
| 1778065074 | 23.89° C | 45% | 1008.7 hPa | - | - | - | - |
| 1778061471 | 22.78° C | 48% | 1009.2 hPa | - | - | - | - |
| 1778060570 | 22.78° C | 50% | 1009.3 hPa | - | - | - | - |
| 1778059669 | 22.78° C | 49% | 1009.2 hPa | - | - | - | - |
| 1778058768 | 21.11° C | 52% | 1009.3 hPa | - | - | - | - |
| 1778057867 | 21.67° C | 54% | 1009.3 hPa | - | - | - | - |
| 1778056066 | 20.56° C | 53% | 1009.2 hPa | - | - | - | - |
| 1778055165 | 20.56° C | 56% | 1009.2 hPa | - | - | - | - |
| 1778054264 | 21.11° C | 58% | 1009.3 hPa | - | - | - | - |
| 1778053363 | 20° C | 60% | 1009.4 hPa | - | - | - | - |
| 1778052462 | 18.89° C | 61% | 1009.4 hPa | - | - | - | - |
| 1778049760 | 18.89° C | 65% | 1009.3 hPa | - | - | - | - |
| 1778048859 | 18.89° C | 66% | 1009.3 hPa | - | - | - | - |
| 1778047958 | 18.89° C | 65% | 1009.2 hPa | - | - | - | - |
| 1778047057 | 18.89° C | 65% | 1009.3 hPa | - | - | - | - |
* Rain since midnight (hover to see other rain measurements)
** Current wind speed in m/s (hover to see current wind gust speed)